AFR603 SOCA-TFFF
Flight info
| Callsign | AFR603 |
|---|---|
| Flight time | N/A |
| Altitude | 38000 |
| Route | REKIM1A REKIM UN674 BUXEX UA555 BGI/N0384F240 A555 BORUS BORUS2X |
| Aircraft | A320/M-SDE2E3FGHIJ1RWXY/HB1 |
Departure
| Time | 2026-04-26 16:21 |
|---|---|
| Airport | Cayenne – Félix Eboué Airport (SOCA) |
Arrival
| Time | N/A |
|---|---|
| Airport | Martinique Aimé Césaire International Airport (TFFF) |
| Time | Latitude | Longitude | Altitude | Speed | Heading |
|---|---|---|---|---|---|
| 2026-04-26 15:56 | 4.82153 | -52.36367 | 29 ft | 0 kts | 335° |
| 2026-04-26 16:13 | 4.82143 | -52.36362 | 29 ft | 4 kts | 335° |
| 2026-04-26 16:13 | 4.82118 | -52.36351 | 29 ft | 4 kts | 335° |
| 2026-04-26 16:14 | 4.82094 | -52.36342 | 29 ft | 4 kts | 358° |
| 2026-04-26 16:14 | 4.82071 | -52.36348 | 29 ft | 4 kts | 47° |
| 2026-04-26 16:14 | 4.82064 | -52.36357 | 29 ft | 0 kts | 66° |
| 2026-04-26 16:17 | 4.82079 | -52.36324 | 29 ft | 8 kts | 66° |
| 2026-04-26 16:17 | 4.82092 | -52.36263 | 29 ft | 7 kts | 127° |
| 2026-04-26 16:17 | 4.82053 | -52.36250 | 29 ft | 6 kts | 158° |
| 2026-04-26 16:17 | 4.82018 | -52.36236 | 29 ft | 5 kts | 158° |
| 2026-04-26 16:18 | 4.81986 | -52.36222 | 29 ft | 5 kts | 156° |
| 2026-04-26 16:18 | 4.81901 | -52.36338 | 29 ft | 22 kts | 245° |
| 2026-04-26 16:19 | 4.81754 | -52.36655 | 28 ft | 27 kts | 244° |
| 2026-04-26 16:19 | 4.81674 | -52.36830 | 28 ft | 28 kts | 245° |
| 2026-04-26 16:19 | 4.81542 | -52.37117 | 28 ft | 27 kts | 245° |
| 2026-04-26 16:20 | 4.81451 | -52.37314 | 27 ft | 18 kts | 245° |
| 2026-04-26 16:20 | 4.81414 | -52.37411 | 27 ft | 7 kts | 128° |
| 2026-04-26 16:20 | 4.81426 | -52.37369 | 27 ft | 8 kts | 67° |
| 2026-04-26 16:21 | 4.81492 | -52.37226 | 28 ft | 56 kts | 65° |
| 2026-04-26 16:21 | 4.81761 | -52.36641 | 29 ft | 126 kts | 65° |
| 2026-04-26 16:21 | 4.82184 | -52.35716 | 382 ft | 150 kts | 64° |
| 2026-04-26 16:21 | 4.82617 | -52.34770 | 1174 ft | 150 kts | 66° |
| 2026-04-26 16:22 | 4.82956 | -52.33769 | 1920 ft | 154 kts | 76° |
| 2026-04-26 16:22 | 4.83241 | -52.32676 | 2387 ft | 175 kts | 76° |
| 2026-04-26 16:22 | 4.83568 | -52.31412 | 2807 ft | 200 kts | 76° |
| 2026-04-26 16:22 | 4.83941 | -52.29978 | 3262 ft | 224 kts | 76° |
| 2026-04-26 16:23 | 4.84358 | -52.28375 | 3815 ft | 248 kts | 76° |
| 2026-04-26 16:23 | 4.84652 | -52.27245 | 4378 ft | 255 kts | 76° |
| 2026-04-26 16:23 | 4.85104 | -52.25499 | 5362 ft | 260 kts | 76° |
| 2026-04-26 16:23 | 4.85713 | -52.23145 | 6661 ft | 266 kts | 76° |
| 2026-04-26 16:24 | 4.86194 | -52.21339 | 7582 ft | 270 kts | 72° |
| 2026-04-26 16:24 | 4.87174 | -52.19720 | 8461 ft | 279 kts | 45° |
| 2026-04-26 16:24 | 4.88234 | -52.18971 | 9059 ft | 286 kts | 28° |
| 2026-04-26 16:24 | 4.90205 | -52.18538 | 9931 ft | 297 kts | 1° |
| 2026-04-26 16:25 | 4.92329 | -52.18677 | 10428 ft | 317 kts | 358° |
| 2026-04-26 16:25 | 4.95369 | -52.18920 | 11011 ft | 339 kts | 358° |
| 2026-04-26 16:25 | 4.96976 | -52.19052 | 11490 ft | 344 kts | 358° |
| 2026-04-26 16:25 | 4.99376 | -52.19250 | 12262 ft | 348 kts | 358° |
| 2026-04-26 16:26 | 5.01777 | -52.19444 | 13028 ft | 352 kts | 358° |
| 2026-04-26 16:26 | 5.04231 | -52.19637 | 13779 ft | 356 kts | 358° |
| 2026-04-26 16:26 | 5.06719 | -52.19830 | 14450 ft | 360 kts | 358° |
| 2026-04-26 16:26 | 5.09232 | -52.20021 | 15113 ft | 364 kts | 358° |
| 2026-04-26 16:27 | 5.11770 | -52.20211 | 15773 ft | 367 kts | 358° |
| 2026-04-26 16:27 | 5.14331 | -52.20405 | 16432 ft | 371 kts | 358° |
| 2026-04-26 16:27 | 5.16885 | -52.20602 | 17080 ft | 374 kts | 358° |
| 2026-04-26 16:27 | 5.19495 | -52.20803 | 17719 ft | 378 kts | 358° |
| 2026-04-26 16:28 | 5.22131 | -52.21002 | 18339 ft | 382 kts | 358° |
| 2026-04-26 16:28 | 5.24798 | -52.21202 | 18888 ft | 385 kts | 358° |
| 2026-04-26 16:28 | 5.27483 | -52.21402 | 19441 ft | 388 kts | 358° |
| 2026-04-26 16:28 | 5.30192 | -52.21605 | 19995 ft | 392 kts | 358° |
| 2026-04-26 16:29 | 5.32884 | -52.21810 | 20543 ft | 395 kts | 358° |
| 2026-04-26 16:29 | 5.35640 | -52.22023 | 21089 ft | 398 kts | 358° |
| 2026-04-26 16:29 | 5.38417 | -52.22240 | 21639 ft | 402 kts | 358° |
| 2026-04-26 16:29 | 5.41223 | -52.22478 | 22181 ft | 406 kts | 355° |
| 2026-04-26 16:30 | 5.43999 | -52.23128 | 22707 ft | 414 kts | 343° |
| 2026-04-26 16:30 | 5.46632 | -52.24365 | 23232 ft | 422 kts | 331° |
| 2026-04-26 16:30 | 5.48986 | -52.26157 | 23704 ft | 429 kts | 318° |
| 2026-04-26 16:30 | 5.50925 | -52.28411 | 24123 ft | 434 kts | 308° |
| 2026-04-26 16:31 | 5.52705 | -52.30873 | 24565 ft | 437 kts | 307° |
| 2026-04-26 16:31 | 5.54491 | -52.33344 | 24999 ft | 439 kts | 307° |
| 2026-04-26 16:31 | 5.56290 | -52.35831 | 25431 ft | 442 kts | 307° |
| 2026-04-26 16:31 | 5.58108 | -52.38338 | 25840 ft | 444 kts | 307° |
| 2026-04-26 16:32 | 5.59941 | -52.40859 | 26247 ft | 447 kts | 307° |
| 2026-04-26 16:32 | 5.61778 | -52.43383 | 26647 ft | 449 kts | 307° |
| 2026-04-26 16:32 | 5.63603 | -52.45888 | 27034 ft | 452 kts | 307° |
| 2026-04-26 16:32 | 5.65466 | -52.48452 | 27424 ft | 454 kts | 307° |
| 2026-04-26 16:33 | 5.67328 | -52.51023 | 27810 ft | 457 kts | 307° |
| 2026-04-26 16:33 | 5.69201 | -52.53610 | 28192 ft | 459 kts | 307° |
| 2026-04-26 16:33 | 5.71082 | -52.56212 | 28569 ft | 461 kts | 307° |
| 2026-04-26 16:33 | 5.72977 | -52.58828 | 28936 ft | 464 kts | 307° |
| 2026-04-26 16:34 | 5.74887 | -52.61463 | 29289 ft | 467 kts | 307° |
| 2026-04-26 16:34 | 5.76806 | -52.64109 | 29637 ft | 469 kts | 307° |
| 2026-04-26 16:34 | 5.78706 | -52.66726 | 29976 ft | 472 kts | 307° |
| 2026-04-26 16:34 | 5.80649 | -52.69402 | 30272 ft | 474 kts | 307° |
| 2026-04-26 16:35 | 5.82595 | -52.72086 | 30576 ft | 476 kts | 307° |
| 2026-04-26 16:35 | 5.84548 | -52.74777 | 30869 ft | 477 kts | 307° |
| 2026-04-26 16:35 | 5.86510 | -52.77480 | 31158 ft | 479 kts | 307° |
| 2026-04-26 16:35 | 5.88479 | -52.80191 | 31432 ft | 480 kts | 307° |
| 2026-04-26 16:36 | 5.90423 | -52.82871 | 31691 ft | 482 kts | 307° |
| 2026-04-26 16:36 | 5.92399 | -52.85599 | 32005 ft | 482 kts | 307° |
| 2026-04-26 16:36 | 5.94368 | -52.88319 | 32397 ft | 480 kts | 307° |
| 2026-04-26 16:36 | 5.96328 | -52.91032 | 32793 ft | 478 kts | 307° |
| 2026-04-26 16:37 | 5.98277 | -52.93732 | 33212 ft | 477 kts | 307° |
| 2026-04-26 16:37 | 6.00225 | -52.96425 | 33603 ft | 475 kts | 307° |
| 2026-04-26 16:37 | 6.02165 | -52.99105 | 34005 ft | 473 kts | 307° |
| 2026-04-26 16:37 | 6.04104 | -53.01781 | 34357 ft | 472 kts | 307° |
| 2026-04-26 16:38 | 6.06009 | -53.04413 | 34678 ft | 471 kts | 307° |
| 2026-04-26 16:38 | 6.07940 | -53.07079 | 34991 ft | 471 kts | 307° |
| 2026-04-26 16:38 | 6.09868 | -53.09741 | 35302 ft | 470 kts | 307° |
| 2026-04-26 16:38 | 6.11793 | -53.12399 | 35610 ft | 470 kts | 307° |
| 2026-04-26 16:39 | 6.13717 | -53.15060 | 35907 ft | 469 kts | 307° |
| 2026-04-26 16:39 | 6.15632 | -53.17713 | 36198 ft | 469 kts | 307° |
| 2026-04-26 16:39 | 6.17546 | -53.20362 | 36486 ft | 468 kts | 307° |
| 2026-04-26 16:39 | 6.19437 | -53.22978 | 36767 ft | 467 kts | 307° |
| 2026-04-26 16:40 | 6.21351 | -53.25620 | 37047 ft | 467 kts | 307° |
| 2026-04-26 16:40 | 6.23261 | -53.28260 | 37316 ft | 467 kts | 307° |
| 2026-04-26 16:40 | 6.25167 | -53.30899 | 37577 ft | 466 kts | 307° |
| 2026-04-26 16:40 | 6.27074 | -53.33539 | 37832 ft | 466 kts | 307° |
| 2026-04-26 16:41 | 6.28983 | -53.36183 | 37967 ft | 466 kts | 307° |
| 2026-04-26 16:41 | 6.30891 | -53.38819 | 37982 ft | 466 kts | 307° |
| 2026-04-26 16:41 | 6.34696 | -53.44078 | 37982 ft | 465 kts | 307° |
| 2026-04-26 16:42 | 6.38475 | -53.49313 | 37990 ft | 465 kts | 307° |
| 2026-04-26 16:42 | 6.42272 | -53.54585 | 37978 ft | 465 kts | 307° |
| 2026-04-26 16:43 | 6.46071 | -53.59854 | 37978 ft | 464 kts | 307° |
| 2026-04-26 16:43 | 6.49869 | -53.65109 | 37984 ft | 465 kts | 307° |
| 2026-04-26 16:44 | 6.53643 | -53.70342 | 37989 ft | 465 kts | 307° |
| 2026-04-26 16:44 | 6.57441 | -53.75611 | 37993 ft | 465 kts | 307° |
| 2026-04-26 16:45 | 6.61243 | -53.80891 | 37994 ft | 465 kts | 307° |
| 2026-04-26 16:45 | 6.65041 | -53.86164 | 37995 ft | 466 kts | 307° |
| 2026-04-26 16:46 | 6.68838 | -53.91432 | 37995 ft | 466 kts | 307° |
| 2026-04-26 16:46 | 6.72642 | -53.96712 | 38000 ft | 466 kts | 307° |
| 2026-04-26 16:47 | 6.76877 | -54.01596 | 38000 ft | 462 kts | 321° |
| 2026-04-26 16:47 | 6.81797 | -54.05746 | 37998 ft | 462 kts | 322° |
| 2026-04-26 16:48 | 6.86729 | -54.09914 | 37997 ft | 463 kts | 322° |
| 2026-04-26 16:48 | 6.91639 | -54.14078 | 38002 ft | 463 kts | 321° |
| 2026-04-26 16:49 | 6.96562 | -54.18264 | 38003 ft | 463 kts | 321° |
| 2026-04-26 16:49 | 7.01476 | -54.22436 | 38002 ft | 463 kts | 322° |
| 2026-04-26 16:50 | 7.06390 | -54.26598 | 38004 ft | 463 kts | 321° |
| 2026-04-26 16:50 | 7.11317 | -54.30772 | 38005 ft | 463 kts | 321° |
| 2026-04-26 16:51 | 7.16248 | -54.34948 | 38004 ft | 462 kts | 321° |
| 2026-04-26 16:51 | 7.21138 | -54.39105 | 38006 ft | 462 kts | 321° |
| 2026-04-26 16:52 | 7.25258 | -54.42605 | 38004 ft | 462 kts | 321° |
| 2026-04-26 16:52 | 7.30973 | -54.47460 | 38003 ft | 462 kts | 321° |
| 2026-04-26 16:53 | 7.35885 | -54.51636 | 38002 ft | 462 kts | 321° |
| 2026-04-26 16:53 | 7.40797 | -54.55816 | 38000 ft | 462 kts | 321° |
| 2026-04-26 16:54 | 7.45708 | -54.59993 | 38002 ft | 462 kts | 321° |
| 2026-04-26 16:54 | 7.50622 | -54.64164 | 38002 ft | 461 kts | 321° |
| 2026-04-26 16:55 | 7.55504 | -54.68309 | 38005 ft | 461 kts | 321° |
| 2026-04-26 16:55 | 7.60410 | -54.72483 | 38002 ft | 461 kts | 321° |
| 2026-04-26 16:56 | 7.67760 | -54.78757 | 38002 ft | 461 kts | 321° |
| 2026-04-26 16:57 | 7.72630 | -54.82905 | 37999 ft | 461 kts | 321° |
| 2026-04-26 16:57 | 7.79985 | -54.89146 | 37993 ft | 460 kts | 321° |
| 2026-04-26 16:58 | 7.84055 | -54.92615 | 37997 ft | 460 kts | 321° |
| 2026-04-26 16:59 | 7.92195 | -54.99569 | 37994 ft | 461 kts | 321° |
| 2026-04-26 17:00 | 8.01994 | -55.07927 | 38000 ft | 461 kts | 321° |
| 2026-04-26 17:00 | 8.09347 | -55.14199 | 37997 ft | 461 kts | 321° |
| 2026-04-26 17:01 | 8.14222 | -55.18364 | 37989 ft | 462 kts | 321° |
| 2026-04-26 17:01 | 8.19130 | -55.22552 | 37997 ft | 462 kts | 321° |
| 2026-04-26 17:02 | 8.24001 | -55.26716 | 37999 ft | 461 kts | 321° |
| 2026-04-26 17:02 | 8.28908 | -55.30907 | 37996 ft | 461 kts | 321° |
| 2026-04-26 17:03 | 8.33805 | -55.35096 | 37994 ft | 461 kts | 321° |
| 2026-04-26 17:03 | 8.38694 | -55.39291 | 37997 ft | 461 kts | 321° |
| 2026-04-26 17:04 | 8.43560 | -55.43452 | 37997 ft | 461 kts | 321° |
| 2026-04-26 17:04 | 8.48475 | -55.47651 | 37991 ft | 462 kts | 321° |
| 2026-04-26 17:05 | 8.53367 | -55.51830 | 38004 ft | 462 kts | 321° |
| 2026-04-26 17:05 | 8.58248 | -55.56018 | 38007 ft | 462 kts | 320° |
| 2026-04-26 17:06 | 8.63141 | -55.60222 | 38007 ft | 461 kts | 320° |
| 2026-04-26 17:06 | 8.68051 | -55.64433 | 38011 ft | 460 kts | 320° |
| 2026-04-26 17:07 | 8.72930 | -55.68613 | 38006 ft | 460 kts | 321° |
| 2026-04-26 17:07 | 8.77781 | -55.72769 | 37999 ft | 459 kts | 320° |
| 2026-04-26 17:08 | 8.82650 | -55.76945 | 38004 ft | 459 kts | 320° |
| 2026-04-26 17:08 | 8.87536 | -55.81140 | 38002 ft | 459 kts | 319° |
| 2026-04-26 17:09 | 8.91578 | -55.84618 | 37990 ft | 460 kts | 319° |
| 2026-04-26 17:09 | 8.97257 | -55.89490 | 37994 ft | 460 kts | 319° |
| 2026-04-26 17:10 | 9.02143 | -55.93691 | 37995 ft | 460 kts | 319° |
| 2026-04-26 17:10 | 9.07027 | -55.97892 | 37993 ft | 461 kts | 319° |
| 2026-04-26 17:11 | 9.11909 | -56.02083 | 37995 ft | 461 kts | 319° |
| 2026-04-26 17:11 | 9.16794 | -56.06282 | 38000 ft | 460 kts | 319° |
| 2026-04-26 17:12 | 9.24118 | -56.12592 | 37999 ft | 460 kts | 319° |
| 2026-04-26 17:13 | 9.31407 | -56.18874 | 38000 ft | 460 kts | 319° |
| 2026-04-26 17:14 | 9.38729 | -56.25183 | 37992 ft | 460 kts | 319° |
| 2026-04-26 17:14 | 9.46012 | -56.31448 | 38003 ft | 459 kts | 319° |
| 2026-04-26 17:15 | 9.53313 | -56.37760 | 37994 ft | 460 kts | 318° |
| 2026-04-26 17:16 | 9.58181 | -56.41968 | 37989 ft | 459 kts | 319° |
| 2026-04-26 17:16 | 9.63043 | -56.46162 | 37988 ft | 459 kts | 319° |
| 2026-04-26 17:17 | 9.67883 | -56.50338 | 37991 ft | 460 kts | 318° |
| 2026-04-26 17:17 | 9.72743 | -56.54540 | 37990 ft | 460 kts | 319° |
| 2026-04-26 17:18 | 9.77613 | -56.58751 | 37994 ft | 459 kts | 319° |
| 2026-04-26 17:18 | 9.82470 | -56.62951 | 38000 ft | 458 kts | 319° |
| 2026-04-26 17:19 | 9.89708 | -56.69220 | 38008 ft | 457 kts | 319° |
| 2026-04-26 17:19 | 9.94542 | -56.73402 | 38004 ft | 456 kts | 319° |
| 2026-04-26 17:20 | 9.97775 | -56.76196 | 38002 ft | 456 kts | 319° |
| 2026-04-26 17:20 | 10.03396 | -56.81064 | 38003 ft | 456 kts | 319° |
| 2026-04-26 17:21 | 10.08221 | -56.85250 | 38014 ft | 456 kts | 318° |
| 2026-04-26 17:21 | 10.13033 | -56.89433 | 38013 ft | 455 kts | 317° |
| 2026-04-26 17:22 | 10.17851 | -56.93606 | 38012 ft | 454 kts | 318° |
| 2026-04-26 17:22 | 10.22624 | -56.97741 | 38010 ft | 453 kts | 318° |
| 2026-04-26 17:23 | 10.27413 | -57.01898 | 38006 ft | 452 kts | 317° |
| 2026-04-26 17:23 | 10.32208 | -57.06059 | 38011 ft | 452 kts | 317° |
| 2026-04-26 17:24 | 10.36988 | -57.10215 | 38011 ft | 451 kts | 317° |
| 2026-04-26 17:24 | 10.41732 | -57.14335 | 38014 ft | 449 kts | 317° |
| 2026-04-26 17:25 | 10.46477 | -57.18460 | 38020 ft | 447 kts | 317° |
| 2026-04-26 17:25 | 10.51212 | -57.22580 | 38016 ft | 446 kts | 317° |
| 2026-04-26 17:26 | 10.55890 | -57.26666 | 38013 ft | 446 kts | 317° |
| 2026-04-26 17:26 | 10.60596 | -57.30770 | 38009 ft | 445 kts | 317° |
| 2026-04-26 17:27 | 10.65307 | -57.34865 | 38013 ft | 446 kts | 317° |
| 2026-04-26 17:27 | 10.70020 | -57.38967 | 38004 ft | 445 kts | 317° |
| 2026-04-26 17:28 | 10.74720 | -57.43063 | 38015 ft | 444 kts | 317° |
| 2026-04-26 17:28 | 10.79378 | -57.47122 | 38013 ft | 443 kts | 317° |
| 2026-04-26 17:29 | 10.83280 | -57.50531 | 38020 ft | 443 kts | 317° |
| 2026-04-26 17:29 | 10.88742 | -57.55298 | 38012 ft | 443 kts | 317° |
| 2026-04-26 17:30 | 10.93421 | -57.59377 | 38003 ft | 443 kts | 318° |
| 2026-04-26 17:30 | 10.98071 | -57.63444 | 38004 ft | 443 kts | 317° |
| 2026-04-26 17:31 | 11.02751 | -57.67540 | 38008 ft | 443 kts | 317° |
| 2026-04-26 17:31 | 11.07416 | -57.71630 | 37995 ft | 443 kts | 318° |
| 2026-04-26 17:32 | 11.12092 | -57.75718 | 37999 ft | 442 kts | 317° |
| 2026-04-26 17:32 | 11.16738 | -57.79774 | 38002 ft | 442 kts | 318° |
| 2026-04-26 17:33 | 11.21410 | -57.83862 | 37998 ft | 441 kts | 318° |
| 2026-04-26 17:34 | 11.28379 | -57.89961 | 38007 ft | 441 kts | 317° |
| 2026-04-26 17:34 | 11.33037 | -57.94048 | 38014 ft | 441 kts | 317° |
| 2026-04-26 17:35 | 11.37678 | -57.98121 | 37998 ft | 442 kts | 317° |
| 2026-04-26 17:35 | 11.42328 | -58.02198 | 38003 ft | 442 kts | 317° |
| 2026-04-26 17:36 | 11.46984 | -58.06280 | 38005 ft | 442 kts | 317° |
| 2026-04-26 17:36 | 11.51652 | -58.10378 | 38012 ft | 442 kts | 317° |
| 2026-04-26 17:37 | 11.56308 | -58.14474 | 38014 ft | 443 kts | 317° |
| 2026-04-26 17:37 | 11.60968 | -58.18573 | 38012 ft | 443 kts | 317° |
| 2026-04-26 17:38 | 11.67984 | -58.24749 | 38011 ft | 443 kts | 316° |
| 2026-04-26 17:38 | 11.72651 | -58.28852 | 38020 ft | 443 kts | 316° |
| 2026-04-26 17:39 | 11.77325 | -58.32964 | 38015 ft | 443 kts | 316° |
| 2026-04-26 17:39 | 11.81988 | -58.37065 | 38009 ft | 443 kts | 316° |
| 2026-04-26 17:40 | 11.85890 | -58.40502 | 38019 ft | 443 kts | 316° |
| 2026-04-26 17:40 | 11.91317 | -58.45295 | 38007 ft | 443 kts | 316° |
| 2026-04-26 17:41 | 11.95978 | -58.49408 | 38020 ft | 444 kts | 316° |
| 2026-04-26 17:41 | 12.00663 | -58.53534 | 38000 ft | 445 kts | 316° |
| 2026-04-26 17:42 | 12.05338 | -58.57664 | 37994 ft | 445 kts | 316° |
| 2026-04-26 17:42 | 12.10020 | -58.61804 | 37997 ft | 446 kts | 316° |
| 2026-04-26 17:43 | 12.14710 | -58.65954 | 38009 ft | 446 kts | 316° |
| 2026-04-26 17:43 | 12.19372 | -58.70080 | 38008 ft | 446 kts | 316° |